sensor_id;sensor_type;location;lat;lon;timestamp;temperature;humidity
33073;DHT22;19432;48.946;8.846;2022-07-29T00:00:39;22.70;88.10
33073;DHT22;19432;48.946;8.846;2022-07-29T00:03:05;22.70;88.40
33073;DHT22;19432;48.946;8.846;2022-07-29T00:05:31;22.60;89.00
33073;DHT22;19432;48.946;8.846;2022-07-29T00:07:56;22.60;89.20
33073;DHT22;19432;48.946;8.846;2022-07-29T00:10:22;22.50;89.50
33073;DHT22;19432;48.946;8.846;2022-07-29T00:12:48;22.40;89.80
33073;DHT22;19432;48.946;8.846;2022-07-29T00:15:14;22.40;89.90
33073;DHT22;19432;48.946;8.846;2022-07-29T00:17:39;22.40;90.10
33073;DHT22;19432;48.946;8.846;2022-07-29T00:20:05;22.40;90.20
33073;DHT22;19432;48.946;8.846;2022-07-29T00:22:31;22.30;90.20
33073;DHT22;19432;48.946;8.846;2022-07-29T00:24:57;22.30;90.30
33073;DHT22;19432;48.946;8.846;2022-07-29T00:27:23;22.30;90.30
33073;DHT22;19432;48.946;8.846;2022-07-29T00:29:48;22.30;90.50
33073;DHT22;19432;48.946;8.846;2022-07-29T00:32:14;22.30;90.60
33073;DHT22;19432;48.946;8.846;2022-07-29T00:34:39;22.20;90.60
33073;DHT22;19432;48.946;8.846;2022-07-29T00:37:24;22.20;90.80
33073;DHT22;19432;48.946;8.846;2022-07-29T00:39:50;22.10;91.00
33073;DHT22;19432;48.946;8.846;2022-07-29T00:42:15;22.10;91.00
33073;DHT22;19432;48.946;8.846;2022-07-29T00:44:42;22.10;91.00
33073;DHT22;19432;48.946;8.846;2022-07-29T00:47:09;22.10;91.10
33073;DHT22;19432;48.946;8.846;2022-07-29T00:49:36;22.00;91.10
33073;DHT22;19432;48.946;8.846;2022-07-29T00:52:03;22.10;91.10
33073;DHT22;19432;48.946;8.846;2022-07-29T00:54:29;22.10;91.30
33073;DHT22;19432;48.946;8.846;2022-07-29T00:56:58;22.00;91.30
33073;DHT22;19432;48.946;8.846;2022-07-29T00:59:23;22.00;91.50
33073;DHT22;19432;48.946;8.846;2022-07-29T01:01:49;22.00;91.40
33073;DHT22;19432;48.946;8.846;2022-07-29T01:04:14;22.00;91.50
33073;DHT22;19432;48.946;8.846;2022-07-29T01:06:41;22.00;91.50
33073;DHT22;19432;48.946;8.846;2022-07-29T01:09:09;21.90;91.70
33073;DHT22;19432;48.946;8.846;2022-07-29T01:11:35;21.90;91.90
33073;DHT22;19432;48.946;8.846;2022-07-29T01:14:01;21.80;91.80
33073;DHT22;19432;48.946;8.846;2022-07-29T01:28:01;21.80;92.00
33073;DHT22;19432;48.946;8.846;2022-07-29T01:30:34;21.80;92.10
33073;DHT22;19432;48.946;8.846;2022-07-29T01:33:05;21.80;92.30
33073;DHT22;19432;48.946;8.846;2022-07-29T01:35:36;21.70;92.40
33073;DHT22;19432;48.946;8.846;2022-07-29T01:38:13;21.70;92.40
33073;DHT22;19432;48.946;8.846;2022-07-29T01:40:47;21.70;92.40
33073;DHT22;19432;48.946;8.846;2022-07-29T01:43:21;21.70;92.40
33073;DHT22;19432;48.946;8.846;2022-07-29T01:45:56;21.60;92.50
33073;DHT22;19432;48.946;8.846;2022-07-29T01:48:47;21.60;92.60
33073;DHT22;19432;48.946;8.846;2022-07-29T01:51:20;21.60;92.70
33073;DHT22;19432;48.946;8.846;2022-07-29T01:53:53;21.60;92.80
33073;DHT22;19432;48.946;8.846;2022-07-29T01:56:23;21.50;92.90
33073;DHT22;19432;48.946;8.846;2022-07-29T01:58:49;21.50;93.00
33073;DHT22;19432;48.946;8.846;2022-07-29T02:01:18;21.50;93.10
33073;DHT22;19432;48.946;8.846;2022-07-29T02:03:45;21.40;93.10
33073;DHT22;19432;48.946;8.846;2022-07-29T02:06:12;21.40;93.10
33073;DHT22;19432;48.946;8.846;2022-07-29T02:08:39;21.50;93.10
33073;DHT22;19432;48.946;8.846;2022-07-29T02:11:06;21.50;92.90
33073;DHT22;19432;48.946;8.846;2022-07-29T02:13:35;21.50;92.80
33073;DHT22;19432;48.946;8.846;2022-07-29T02:16:02;21.60;93.00
33073;DHT22;19432;48.946;8.846;2022-07-29T02:18:30;21.60;92.90
33073;DHT22;19432;48.946;8.846;2022-07-29T02:20:58;21.60;93.00
33073;DHT22;19432;48.946;8.846;2022-07-29T02:23:25;21.60;92.90
33073;DHT22;19432;48.946;8.846;2022-07-29T02:25:59;21.60;93.10
33073;DHT22;19432;48.946;8.846;2022-07-29T02:28:27;21.60;93.00
33073;DHT22;19432;48.946;8.846;2022-07-29T02:30:56;21.60;92.90
33073;DHT22;19432;48.946;8.846;2022-07-29T02:33:24;21.60;92.80
33073;DHT22;19432;48.946;8.846;2022-07-29T02:35:50;21.70;92.80
33073;DHT22;19432;48.946;8.846;2022-07-29T02:38:18;21.70;92.70
33073;DHT22;19432;48.946;8.846;2022-07-29T02:41:08;21.80;92.80
33073;DHT22;19432;48.946;8.846;2022-07-29T02:43:35;21.80;92.70
33073;DHT22;19432;48.946;8.846;2022-07-29T02:46:03;21.80;92.60
33073;DHT22;19432;48.946;8.846;2022-07-29T02:48:47;21.80;92.70
33073;DHT22;19432;48.946;8.846;2022-07-29T02:51:28;21.70;92.70
33073;DHT22;19432;48.946;8.846;2022-07-29T02:53:56;21.70;92.70
33073;DHT22;19432;48.946;8.846;2022-07-29T02:56:28;21.60;93.20
33073;DHT22;19432;48.946;8.846;2022-07-29T02:59:03;21.50;93.10
33073;DHT22;19432;48.946;8.846;2022-07-29T03:01:31;21.40;93.20
33073;DHT22;19432;48.946;8.846;2022-07-29T03:04:01;21.40;93.20
33073;DHT22;19432;48.946;8.846;2022-07-29T03:06:28;21.40;93.30
33073;DHT22;19432;48.946;8.846;2022-07-29T03:08:57;21.40;93.40
33073;DHT22;19432;48.946;8.846;2022-07-29T03:11:24;21.40;93.40
33073;DHT22;19432;48.946;8.846;2022-07-29T03:13:51;21.30;93.40
33073;DHT22;19432;48.946;8.846;2022-07-29T03:16:18;21.30;93.50
33073;DHT22;19432;48.946;8.846;2022-07-29T03:18:44;21.20;93.70
33073;DHT22;19432;48.946;8.846;2022-07-29T03:21:10;21.20;94.10
33073;DHT22;19432;48.946;8.846;2022-07-29T03:23:36;21.10;93.80
33073;DHT22;19432;48.946;8.846;2022-07-29T03:26:02;21.10;93.90
33073;DHT22;19432;48.946;8.846;2022-07-29T03:28:27;21.10;93.80
33073;DHT22;19432;48.946;8.846;2022-07-29T03:30:54;21.20;94.00
33073;DHT22;19432;48.946;8.846;2022-07-29T03:33:19;21.10;93.80
33073;DHT22;19432;48.946;8.846;2022-07-29T03:35:45;21.20;93.90
33073;DHT22;19432;48.946;8.846;2022-07-29T03:38:11;21.10;94.00
33073;DHT22;19432;48.946;8.846;2022-07-29T03:40:54;21.10;94.10
33073;DHT22;19432;48.946;8.846;2022-07-29T03:43:20;21.00;94.20
33073;DHT22;19432;48.946;8.846;2022-07-29T03:45:49;21.00;94.30
33073;DHT22;19432;48.946;8.846;2022-07-29T03:48:19;20.90;94.40
33073;DHT22;19432;48.946;8.846;2022-07-29T03:50:45;20.90;94.40
33073;DHT22;19432;48.946;8.846;2022-07-29T03:53:12;20.80;94.40
33073;DHT22;19432;48.946;8.846;2022-07-29T03:55:44;20.80;94.70
33073;DHT22;19432;48.946;8.846;2022-07-29T03:58:11;20.70;95.00
33073;DHT22;19432;48.946;8.846;2022-07-29T04:00:38;20.70;94.90
33073;DHT22;19432;48.946;8.846;2022-07-29T04:03:05;20.60;95.00
33073;DHT22;19432;48.946;8.846;2022-07-29T04:05:31;20.50;95.20
33073;DHT22;19432;48.946;8.846;2022-07-29T04:07:56;20.50;95.20
33073;DHT22;19432;48.946;8.846;2022-07-29T04:10:22;20.60;95.20
33073;DHT22;19432;48.946;8.846;2022-07-29T04:12:50;20.60;95.30
33073;DHT22;19432;48.946;8.846;2022-07-29T04:15:16;20.70;95.20
33073;DHT22;19432;48.946;8.846;2022-07-29T04:17:42;20.70;95.10
33073;DHT22;19432;48.946;8.846;2022-07-29T04:20:08;20.70;95.00
33073;DHT22;19432;48.946;8.846;2022-07-29T04:22:34;20.70;95.10
33073;DHT22;19432;48.946;8.846;2022-07-29T04:25:00;20.70;95.20
33073;DHT22;19432;48.946;8.846;2022-07-29T04:27:26;20.70;95.20
33073;DHT22;19432;48.946;8.846;2022-07-29T04:29:51;20.70;95.20
33073;DHT22;19432;48.946;8.846;2022-07-29T04:32:17;20.70;95.20
33073;DHT22;19432;48.946;8.846;2022-07-29T04:34:42;20.70;95.10
33073;DHT22;19432;48.946;8.846;2022-07-29T04:37:08;20.70;95.20
33073;DHT22;19432;48.946;8.846;2022-07-29T04:39:33;20.70;95.20
33073;DHT22;19432;48.946;8.846;2022-07-29T04:41:59;20.80;95.30
33073;DHT22;19432;48.946;8.846;2022-07-29T04:44:25;20.80;95.20
33073;DHT22;19432;48.946;8.846;2022-07-29T04:46:50;20.80;95.20
33073;DHT22;19432;48.946;8.846;2022-07-29T04:49:16;20.70;95.20
33073;DHT22;19432;48.946;8.846;2022-07-29T04:51:41;20.70;95.40
33073;DHT22;19432;48.946;8.846;2022-07-29T04:54:07;20.80;95.20
33073;DHT22;19432;48.946;8.846;2022-07-29T04:56:33;20.80;95.20
33073;DHT22;19432;48.946;8.846;2022-07-29T04:58:58;20.80;95.10
33073;DHT22;19432;48.946;8.846;2022-07-29T05:01:24;20.80;95.10
33073;DHT22;19432;48.946;8.846;2022-07-29T05:03:50;20.90;95.10
33073;DHT22;19432;48.946;8.846;2022-07-29T05:06:15;20.90;95.00
33073;DHT22;19432;48.946;8.846;2022-07-29T05:08:41;20.80;95.20
33073;DHT22;19432;48.946;8.846;2022-07-29T05:11:06;20.90;95.30
33073;DHT22;19432;48.946;8.846;2022-07-29T05:13:32;21.00;95.20
33073;DHT22;19432;48.946;8.846;2022-07-29T05:15:58;21.00;95.10
33073;DHT22;19432;48.946;8.846;2022-07-29T05:18:25;21.10;95.00
33073;DHT22;19432;48.946;8.846;2022-07-29T05:20:50;21.20;94.90
33073;DHT22;19432;48.946;8.846;2022-07-29T05:23:16;21.30;94.90
33073;DHT22;19432;48.946;8.846;2022-07-29T05:25:42;21.40;94.80
33073;DHT22;19432;48.946;8.846;2022-07-29T05:28:07;21.50;94.70
33073;DHT22;19432;48.946;8.846;2022-07-29T05:30:33;21.50;94.60
33073;DHT22;19432;48.946;8.846;2022-07-29T05:32:59;21.50;94.50
33073;DHT22;19432;48.946;8.846;2022-07-29T05:35:24;21.60;94.50
33073;DHT22;19432;48.946;8.846;2022-07-29T05:37:50;21.70;94.40
33073;DHT22;19432;48.946;8.846;2022-07-29T05:40:15;21.70;94.30
33073;DHT22;19432;48.946;8.846;2022-07-29T05:42:41;21.80;94.30
33073;DHT22;19432;48.946;8.846;2022-07-29T05:45:07;21.80;94.20
33073;DHT22;19432;48.946;8.846;2022-07-29T05:47:33;21.90;94.10
33073;DHT22;19432;48.946;8.846;2022-07-29T05:49:59;22.00;94.00
33073;DHT22;19432;48.946;8.846;2022-07-29T05:52:25;22.00;94.20
33073;DHT22;19432;48.946;8.846;2022-07-29T05:54:50;22.10;93.80
33073;DHT22;19432;48.946;8.846;2022-07-29T05:57:17;22.10;93.70
33073;DHT22;19432;48.946;8.846;2022-07-29T05:59:43;22.10;93.80
33073;DHT22;19432;48.946;8.846;2022-07-29T06:02:08;22.20;93.80
33073;DHT22;19432;48.946;8.846;2022-07-29T06:04:34;22.30;93.60
33073;DHT22;19432;48.946;8.846;2022-07-29T06:07:00;22.40;93.50
33073;DHT22;19432;48.946;8.846;2022-07-29T06:09:25;22.50;93.30
33073;DHT22;19432;48.946;8.846;2022-07-29T06:11:51;22.70;93.10
33073;DHT22;19432;48.946;8.846;2022-07-29T06:14:17;22.70;93.00
33073;DHT22;19432;48.946;8.846;2022-07-29T06:16:43;22.80;93.00
33073;DHT22;19432;48.946;8.846;2022-07-29T06:19:09;22.90;92.80
33073;DHT22;19432;48.946;8.846;2022-07-29T06:21:34;23.00;92.60
33073;DHT22;19432;48.946;8.846;2022-07-29T06:24:00;23.00;92.50
33073;DHT22;19432;48.946;8.846;2022-07-29T06:26:25;23.10;92.30
33073;DHT22;19432;48.946;8.846;2022-07-29T06:28:51;23.10;92.10
33073;DHT22;19432;48.946;8.846;2022-07-29T06:31:17;23.20;92.10
33073;DHT22;19432;48.946;8.846;2022-07-29T06:33:42;23.20;91.80
33073;DHT22;19432;48.946;8.846;2022-07-29T06:36:08;23.30;91.80
33073;DHT22;19432;48.946;8.846;2022-07-29T06:38:34;23.30;91.80
33073;DHT22;19432;48.946;8.846;2022-07-29T06:41:00;23.40;91.80
33073;DHT22;19432;48.946;8.846;2022-07-29T06:43:37;23.40;91.80
33073;DHT22;19432;48.946;8.846;2022-07-29T06:46:08;23.50;91.80
33073;DHT22;19432;48.946;8.846;2022-07-29T06:48:34;23.50;91.60
33073;DHT22;19432;48.946;8.846;2022-07-29T06:51:02;23.60;91.50
33073;DHT22;19432;48.946;8.846;2022-07-29T06:53:29;23.70;91.20
33073;DHT22;19432;48.946;8.846;2022-07-29T06:55:55;23.70;91.10
33073;DHT22;19432;48.946;8.846;2022-07-29T06:58:20;23.80;91.00
33073;DHT22;19432;48.946;8.846;2022-07-29T07:00:47;23.80;91.00
33073;DHT22;19432;48.946;8.846;2022-07-29T07:03:13;23.80;90.80
33073;DHT22;19432;48.946;8.846;2022-07-29T07:05:39;23.90;90.70
33073;DHT22;19432;48.946;8.846;2022-07-29T07:08:05;24.00;90.80
33073;DHT22;19432;48.946;8.846;2022-07-29T07:10:32;24.10;90.70
33073;DHT22;19432;48.946;8.846;2022-07-29T07:12:58;24.20;90.50
33073;DHT22;19432;48.946;8.846;2022-07-29T07:15:24;24.30;90.30
33073;DHT22;19432;48.946;8.846;2022-07-29T07:17:50;24.50;90.00
33073;DHT22;19432;48.946;8.846;2022-07-29T07:20:16;24.90;89.70
33073;DHT22;19432;48.946;8.846;2022-07-29T07:22:43;25.20;88.80
33073;DHT22;19432;48.946;8.846;2022-07-29T07:25:09;25.50;88.00
33073;DHT22;19432;48.946;8.846;2022-07-29T07:27:36;25.80;86.70
33073;DHT22;19432;48.946;8.846;2022-07-29T07:30:06;26.00;85.80
33073;DHT22;19432;48.946;8.846;2022-07-29T07:32:35;26.20;84.80
33073;DHT22;19432;48.946;8.846;2022-07-29T07:35:01;26.30;84.70
33073;DHT22;19432;48.946;8.846;2022-07-29T07:37:27;26.30;84.30
33073;DHT22;19432;48.946;8.846;2022-07-29T07:39:53;26.30;83.80
33073;DHT22;19432;48.946;8.846;2022-07-29T07:42:19;26.20;83.90
33073;DHT22;19432;48.946;8.846;2022-07-29T07:44:44;26.20;83.70
33073;DHT22;19432;48.946;8.846;2022-07-29T07:47:14;26.00;84.00
33073;DHT22;19432;48.946;8.846;2022-07-29T07:49:40;26.00;84.70
33073;DHT22;19432;48.946;8.846;2022-07-29T07:52:05;25.90;83.80
33073;DHT22;19432;48.946;8.846;2022-07-29T07:54:31;26.10;83.70
33073;DHT22;19432;48.946;8.846;2022-07-29T07:56:57;26.30;83.50
33073;DHT22;19432;48.946;8.846;2022-07-29T07:59:23;26.40;82.90
33073;DHT22;19432;48.946;8.846;2022-07-29T08:01:49;26.40;82.50
33073;DHT22;19432;48.946;8.846;2022-07-29T08:04:15;26.40;82.60
33073;DHT22;19432;48.946;8.846;2022-07-29T08:06:41;26.50;82.20
33073;DHT22;19432;48.946;8.846;2022-07-29T08:09:06;26.60;82.30
33073;DHT22;19432;48.946;8.846;2022-07-29T08:11:32;26.80;81.60
33073;DHT22;19432;48.946;8.846;2022-07-29T08:13:58;26.80;80.10
33073;DHT22;19432;48.946;8.846;2022-07-29T08:16:24;26.70;80.70
33073;DHT22;19432;48.946;8.846;2022-07-29T08:18:50;26.70;81.00
33073;DHT22;19432;48.946;8.846;2022-07-29T08:21:17;26.70;80.80
33073;DHT22;19432;48.946;8.846;2022-07-29T08:23:44;26.80;80.50
33073;DHT22;19432;48.946;8.846;2022-07-29T08:26:19;26.80;78.60
33073;DHT22;19432;48.946;8.846;2022-07-29T08:28:46;26.90;78.90
33073;DHT22;19432;48.946;8.846;2022-07-29T08:31:14;27.10;79.60
33073;DHT22;19432;48.946;8.846;2022-07-29T08:33:40;27.20;78.50
33073;DHT22;19432;48.946;8.846;2022-07-29T08:36:07;27.30;78.90
33073;DHT22;19432;48.946;8.846;2022-07-29T08:38:33;27.60;78.40
33073;DHT22;19432;48.946;8.846;2022-07-29T08:41:00;27.90;78.00
33073;DHT22;19432;48.946;8.846;2022-07-29T08:43:27;28.20;77.30
33073;DHT22;19432;48.946;8.846;2022-07-29T08:45:53;28.40;73.90
33073;DHT22;19432;48.946;8.846;2022-07-29T08:48:23;28.40;73.80
33073;DHT22;19432;48.946;8.846;2022-07-29T08:50:52;28.40;74.30
33073;DHT22;19432;48.946;8.846;2022-07-29T08:53:20;28.60;74.80
33073;DHT22;19432;48.946;8.846;2022-07-29T08:55:48;28.90;74.30
33073;DHT22;19432;48.946;8.846;2022-07-29T08:58:15;29.20;72.30
33073;DHT22;19432;48.946;8.846;2022-07-29T09:00:45;29.50;72.30
33073;DHT22;19432;48.946;8.846;2022-07-29T09:03:20;29.70;71.90
33073;DHT22;19432;48.946;8.846;2022-07-29T09:05:47;30.00;71.00
33073;DHT22;19432;48.946;8.846;2022-07-29T09:08:14;30.20;69.80
33073;DHT22;19432;48.946;8.846;2022-07-29T09:10:40;30.30;68.90
33073;DHT22;19432;48.946;8.846;2022-07-29T09:13:06;30.30;63.90
33073;DHT22;19432;48.946;8.846;2022-07-29T09:15:31;30.30;65.00
33073;DHT22;19432;48.946;8.846;2022-07-29T09:17:57;30.40;64.70
33073;DHT22;19432;48.946;8.846;2022-07-29T09:20:25;30.60;61.80
33073;DHT22;19432;48.946;8.846;2022-07-29T09:22:52;30.60;60.80
33073;DHT22;19432;48.946;8.846;2022-07-29T09:25:38;30.70;61.10
33073;DHT22;19432;48.946;8.846;2022-07-29T09:28:15;30.90;59.60
33073;DHT22;19432;48.946;8.846;2022-07-29T09:30:58;31.00;59.50
33073;DHT22;19432;48.946;8.846;2022-07-29T09:33:31;31.10;59.00
33073;DHT22;19432;48.946;8.846;2022-07-29T09:36:04;31.20;59.20
33073;DHT22;19432;48.946;8.846;2022-07-29T09:38:30;31.20;58.50
33073;DHT22;19432;48.946;8.846;2022-07-29T09:40:57;31.30;58.30
33073;DHT22;19432;48.946;8.846;2022-07-29T09:43:23;31.50;58.10
33073;DHT22;19432;48.946;8.846;2022-07-29T09:45:49;31.50;57.80
33073;DHT22;19432;48.946;8.846;2022-07-29T09:48:16;31.60;57.00
33073;DHT22;19432;48.946;8.846;2022-07-29T09:50:43;31.70;57.10
33073;DHT22;19432;48.946;8.846;2022-07-29T09:53:10;31.80;56.60
33073;DHT22;19432;48.946;8.846;2022-07-29T09:56:05;31.90;56.60
33073;DHT22;19432;48.946;8.846;2022-07-29T09:58:31;31.90;55.40
33073;DHT22;19432;48.946;8.846;2022-07-29T10:01:00;31.90;55.60
33073;DHT22;19432;48.946;8.846;2022-07-29T10:03:25;31.90;55.30
33073;DHT22;19432;48.946;8.846;2022-07-29T10:06:23;31.90;54.90
33073;DHT22;19432;48.946;8.846;2022-07-29T10:08:49;32.10;55.20
33073;DHT22;19432;48.946;8.846;2022-07-29T10:11:19;32.20;55.40
33073;DHT22;19432;48.946;8.846;2022-07-29T10:13:46;32.50;55.10
33073;DHT22;19432;48.946;8.846;2022-07-29T10:16:14;32.70;55.10
33073;DHT22;19432;48.946;8.846;2022-07-29T10:18:41;32.80;53.90
33073;DHT22;19432;48.946;8.846;2022-07-29T10:21:07;32.90;53.00
33073;DHT22;19432;48.946;8.846;2022-07-29T10:23:34;32.90;52.80
33073;DHT22;19432;48.946;8.846;2022-07-29T10:26:00;33.10;52.60
33073;DHT22;19432;48.946;8.846;2022-07-29T10:28:26;33.20;52.70
33073;DHT22;19432;48.946;8.846;2022-07-29T10:30:53;33.30;52.20
33073;DHT22;19432;48.946;8.846;2022-07-29T10:33:39;33.30;51.80
33073;DHT22;19432;48.946;8.846;2022-07-29T10:39:10;33.10;51.70
33073;DHT22;19432;48.946;8.846;2022-07-29T10:41:59;33.10;51.10
33073;DHT22;19432;48.946;8.846;2022-07-29T10:44:26;33.20;50.80
33073;DHT22;19432;48.946;8.846;2022-07-29T10:46:52;33.30;50.90
33073;DHT22;19432;48.946;8.846;2022-07-29T10:49:20;33.30;50.80
33073;DHT22;19432;48.946;8.846;2022-07-29T10:57:16;33.50;51.40
33073;DHT22;19432;48.946;8.846;2022-07-29T10:59:44;33.80;50.60
33073;DHT22;19432;48.946;8.846;2022-07-29T11:04:58;33.90;50.20
33073;DHT22;19432;48.946;8.846;2022-07-29T11:07:25;33.90;50.10
33073;DHT22;19432;48.946;8.846;2022-07-29T11:15:08;33.90;49.30
33073;DHT22;19432;48.946;8.846;2022-07-29T11:20:47;33.70;49.80
33073;DHT22;19432;48.946;8.846;2022-07-29T11:31:38;34.30;49.10
33073;DHT22;19432;48.946;8.846;2022-07-29T11:34:29;34.40;48.70
33073;DHT22;19432;48.946;8.846;2022-07-29T11:39:34;34.20;48.60
33073;DHT22;19432;48.946;8.846;2022-07-29T11:47:22;33.50;49.60
33073;DHT22;19432;48.946;8.846;2022-07-29T11:49:50;33.20;49.90
33073;DHT22;19432;48.946;8.846;2022-07-29T11:52:17;32.90;50.10
33073;DHT22;19432;48.946;8.846;2022-07-29T11:54:43;32.70;50.60
33073;DHT22;19432;48.946;8.846;2022-07-29T11:57:09;32.50;51.00
33073;DHT22;19432;48.946;8.846;2022-07-29T11:59:42;32.30;51.00
33073;DHT22;19432;48.946;8.846;2022-07-29T12:02:08;32.20;51.60
33073;DHT22;19432;48.946;8.846;2022-07-29T12:07:14;31.90;51.50
33073;DHT22;19432;48.946;8.846;2022-07-29T12:09:39;31.70;52.20
33073;DHT22;19432;48.946;8.846;2022-07-29T12:12:05;31.70;52.20
33073;DHT22;19432;48.946;8.846;2022-07-29T12:14:33;31.60;52.50
33073;DHT22;19432;48.946;8.846;2022-07-29T12:16:59;31.50;52.00
33073;DHT22;19432;48.946;8.846;2022-07-29T12:19:26;31.40;52.40
33073;DHT22;19432;48.946;8.846;2022-07-29T12:21:54;31.30;52.90
33073;DHT22;19432;48.946;8.846;2022-07-29T12:24:20;31.20;52.70
33073;DHT22;19432;48.946;8.846;2022-07-29T12:29:19;31.00;52.80
33073;DHT22;19432;48.946;8.846;2022-07-29T12:31:45;30.90;53.00
33073;DHT22;19432;48.946;8.846;2022-07-29T12:34:13;30.90;53.30
33073;DHT22;19432;48.946;8.846;2022-07-29T12:36:42;30.80;53.20
33073;DHT22;19432;48.946;8.846;2022-07-29T12:39:09;30.70;53.40
33073;DHT22;19432;48.946;8.846;2022-07-29T12:41:35;30.70;53.30
33073;DHT22;19432;48.946;8.846;2022-07-29T12:44:01;30.60;52.40
33073;DHT22;19432;48.946;8.846;2022-07-29T12:46:27;30.50;52.40
33073;DHT22;19432;48.946;8.846;2022-07-29T12:48:53;30.40;51.90
33073;DHT22;19432;48.946;8.846;2022-07-29T12:51:39;30.30;52.10
33073;DHT22;19432;48.946;8.846;2022-07-29T12:56:36;30.20;52.60
33073;DHT22;19432;48.946;8.846;2022-07-29T12:59:20;30.20;52.30
33073;DHT22;19432;48.946;8.846;2022-07-29T13:01:51;30.20;51.80
33073;DHT22;19432;48.946;8.846;2022-07-29T13:04:30;30.20;51.60
33073;DHT22;19432;48.946;8.846;2022-07-29T13:07:06;30.20;51.70
33073;DHT22;19432;48.946;8.846;2022-07-29T13:09:45;30.20;52.10
33073;DHT22;19432;48.946;8.846;2022-07-29T13:12:13;30.10;51.90
33073;DHT22;19432;48.946;8.846;2022-07-29T13:14:44;30.10;52.20
33073;DHT22;19432;48.946;8.846;2022-07-29T13:17:12;30.00;52.20
33073;DHT22;19432;48.946;8.846;2022-07-29T13:22:11;29.90;51.90
33073;DHT22;19432;48.946;8.846;2022-07-29T13:24:57;29.90;51.70
33073;DHT22;19432;48.946;8.846;2022-07-29T13:27:29;29.80;51.80
33073;DHT22;19432;48.946;8.846;2022-07-29T13:29:56;29.80;51.70
33073;DHT22;19432;48.946;8.846;2022-07-29T13:32:24;29.70;51.80
33073;DHT22;19432;48.946;8.846;2022-07-29T13:34:51;29.70;52.00
33073;DHT22;19432;48.946;8.846;2022-07-29T13:37:18;29.70;52.20
33073;DHT22;19432;48.946;8.846;2022-07-29T13:39:43;29.70;52.70
33073;DHT22;19432;48.946;8.846;2022-07-29T13:42:09;29.70;52.70
33073;DHT22;19432;48.946;8.846;2022-07-29T13:44:35;29.70;52.70
33073;DHT22;19432;48.946;8.846;2022-07-29T13:47:01;29.80;53.00
33073;DHT22;19432;48.946;8.846;2022-07-29T13:49:27;29.90;53.40
33073;DHT22;19432;48.946;8.846;2022-07-29T13:51:53;30.00;53.00
33073;DHT22;19432;48.946;8.846;2022-07-29T13:54:20;30.20;53.30
33073;DHT22;19432;48.946;8.846;2022-07-29T13:56:45;30.30;52.90
33073;DHT22;19432;48.946;8.846;2022-07-29T13:59:12;30.40;52.80
33073;DHT22;19432;48.946;8.846;2022-07-29T14:01:39;30.50;52.50
33073;DHT22;19432;48.946;8.846;2022-07-29T14:04:07;30.70;52.30
33073;DHT22;19432;48.946;8.846;2022-07-29T14:06:33;30.70;51.60
33073;DHT22;19432;48.946;8.846;2022-07-29T14:08:59;30.60;51.70
33073;DHT22;19432;48.946;8.846;2022-07-29T14:11:24;30.50;51.20
33073;DHT22;19432;48.946;8.846;2022-07-29T14:13:50;30.40;51.20
33073;DHT22;19432;48.946;8.846;2022-07-29T14:16:16;30.40;51.40
33073;DHT22;19432;48.946;8.846;2022-07-29T14:18:41;30.30;51.70
33073;DHT22;19432;48.946;8.846;2022-07-29T14:21:07;30.30;51.70
33073;DHT22;19432;48.946;8.846;2022-07-29T14:23:33;30.20;51.90
33073;DHT22;19432;48.946;8.846;2022-07-29T14:25:59;30.20;51.50
33073;DHT22;19432;48.946;8.846;2022-07-29T14:28:24;30.10;51.50
33073;DHT22;19432;48.946;8.846;2022-07-29T14:30:50;30.10;51.60
33073;DHT22;19432;48.946;8.846;2022-07-29T14:33:16;30.10;51.20
33073;DHT22;19432;48.946;8.846;2022-07-29T14:35:41;30.00;51.20
33073;DHT22;19432;48.946;8.846;2022-07-29T14:38:07;30.00;50.60
33073;DHT22;19432;48.946;8.846;2022-07-29T14:40:32;30.00;51.00
33073;DHT22;19432;48.946;8.846;2022-07-29T14:42:58;30.00;51.20
33073;DHT22;19432;48.946;8.846;2022-07-29T14:45:24;30.00;50.80
33073;DHT22;19432;48.946;8.846;2022-07-29T14:47:49;29.90;50.90
33073;DHT22;19432;48.946;8.846;2022-07-29T14:50:16;30.00;51.10
33073;DHT22;19432;48.946;8.846;2022-07-29T14:52:41;30.00;50.80
33073;DHT22;19432;48.946;8.846;2022-07-29T14:55:07;30.00;50.90
33073;DHT22;19432;48.946;8.846;2022-07-29T14:57:33;30.00;50.50
33073;DHT22;19432;48.946;8.846;2022-07-29T14:59:59;30.00;50.60
33073;DHT22;19432;48.946;8.846;2022-07-29T15:02:24;30.00;50.70
33073;DHT22;19432;48.946;8.846;2022-07-29T15:04:50;30.00;50.80
33073;DHT22;19432;48.946;8.846;2022-07-29T15:07:16;30.00;50.90
33073;DHT22;19432;48.946;8.846;2022-07-29T15:09:42;30.00;50.30
33073;DHT22;19432;48.946;8.846;2022-07-29T15:12:08;29.90;50.50
33073;DHT22;19432;48.946;8.846;2022-07-29T15:14:35;29.90;50.30
33073;DHT22;19432;48.946;8.846;2022-07-29T15:17:01;29.80;50.40
33073;DHT22;19432;48.946;8.846;2022-07-29T15:19:27;29.80;50.60
33073;DHT22;19432;48.946;8.846;2022-07-29T15:21:53;29.80;50.40
33073;DHT22;19432;48.946;8.846;2022-07-29T15:24:19;29.70;50.00
33073;DHT22;19432;48.946;8.846;2022-07-29T15:26:46;29.70;50.40
33073;DHT22;19432;48.946;8.846;2022-07-29T15:29:12;29.60;50.40
33073;DHT22;19432;48.946;8.846;2022-07-29T15:31:37;29.60;50.70
33073;DHT22;19432;48.946;8.846;2022-07-29T15:34:03;29.70;50.90
33073;DHT22;19432;48.946;8.846;2022-07-29T15:36:29;29.60;50.50
33073;DHT22;19432;48.946;8.846;2022-07-29T15:38:55;29.60;50.40
33073;DHT22;19432;48.946;8.846;2022-07-29T15:41:21;29.60;50.60
33073;DHT22;19432;48.946;8.846;2022-07-29T15:43:47;29.60;50.80
33073;DHT22;19432;48.946;8.846;2022-07-29T15:46:17;29.60;50.80
33073;DHT22;19432;48.946;8.846;2022-07-29T15:49:03;29.60;51.00
33073;DHT22;19432;48.946;8.846;2022-07-29T15:51:29;29.60;51.00
33073;DHT22;19432;48.946;8.846;2022-07-29T15:53:54;29.60;50.90
33073;DHT22;19432;48.946;8.846;2022-07-29T15:56:21;29.60;50.90
33073;DHT22;19432;48.946;8.846;2022-07-29T15:58:46;29.60;51.10
33073;DHT22;19432;48.946;8.846;2022-07-29T16:01:12;29.60;51.30
33073;DHT22;19432;48.946;8.846;2022-07-29T16:03:38;29.60;50.80
33073;DHT22;19432;48.946;8.846;2022-07-29T16:06:04;29.50;50.80
33073;DHT22;19432;48.946;8.846;2022-07-29T16:08:32;29.40;51.20
33073;DHT22;19432;48.946;8.846;2022-07-29T16:10:58;29.40;51.00
33073;DHT22;19432;48.946;8.846;2022-07-29T16:13:24;29.40;50.00
33073;DHT22;19432;48.946;8.846;2022-07-29T16:15:50;29.40;51.20
33073;DHT22;19432;48.946;8.846;2022-07-29T16:18:16;29.50;50.80
33073;DHT22;19432;48.946;8.846;2022-07-29T16:20:42;29.50;50.30
33073;DHT22;19432;48.946;8.846;2022-07-29T16:23:10;29.60;50.30
33073;DHT22;19432;48.946;8.846;2022-07-29T16:25:40;29.70;50.20
33073;DHT22;19432;48.946;8.846;2022-07-29T16:28:06;29.70;49.60
33073;DHT22;19432;48.946;8.846;2022-07-29T16:30:33;29.90;49.90